Time;durP1;ratioP1;P1;durP2;ratioP2;P2;SDS_P1;SDS_P2;PMS_P1;PMS_P2;Temp;Humidity;BMP_temperature;BMP_pressure;BME280_temperature;BME280_humidity;BME280_pressure;Samples;Min_cycle;Max_cycle;Signal;HPM_P1;HPM_P2
2022/06/21 00:00:53;;;;;;;4.30;2.50;;;;;;;14.78;77.11;99254.45;107631;1270;138639;-73
2022/06/21 00:03:27;;;;;;;6.10;2.20;;;;;;;14.74;76.83;99254.50;107796;1270;111124;-72
2022/06/21 00:05:59;;;;;;;2.90;2.00;;;;;;;14.71;76.66;99261.17;107704;1270;137935;-73
2022/06/21 00:08:34;;;;;;;2.90;1.80;;;;;;;14.65;76.46;99263.02;107645;1270;107561;-73
2022/06/21 00:11:18;;;;;;;1.90;1.70;;;;;;;14.63;76.54;99264.73;107417;1270;138050;-71
2022/06/21 00:13:50;;;;;;;4.10;2.00;;;;;;;14.59;76.28;99260.41;107826;1270;94796;-73
2022/06/21 00:16:25;;;;;;;5.20;1.90;;;;;;;14.55;76.51;99257.69;107018;1270;109915;-72
2022/06/21 00:18:57;;;;;;;2.00;1.60;;;;;;;14.53;76.16;99255.36;107742;1270;138477;-72
2022/06/21 00:21:34;;;;;;;6.00;1.30;;;;;;;14.49;75.95;99257.19;107802;1270;107095;-73
2022/06/21 00:24:08;;;;;;;2.10;1.60;;;;;;;14.45;75.89;99255.88;107548;1270;138972;-72
2022/06/21 00:26:40;;;;;;;3.20;1.60;;;;;;;14.40;75.71;99260.06;107234;1269;96498;-73
2022/06/21 00:29:13;;;;;;;2.40;1.90;;;;;;;14.32;75.55;99255.80;106181;1270;138151;-73
2022/06/21 00:31:53;;;;;;;1.80;1.50;;;;;;;14.26;75.79;99256.17;106220;1270;109240;-72
2022/06/21 00:34:25;;;;;;;1.60;1.50;;;;;;;14.22;75.67;99253.83;106329;1270;108791;-73
2022/06/21 00:37:00;;;;;;;2.40;1.70;;;;;;;14.20;75.77;99247.84;106126;1270;138721;-74
2022/06/21 00:39:33;;;;;;;3.00;1.90;;;;;;;14.17;75.74;99245.54;107846;1270;94592;-74
2022/06/21 00:42:22;;;;;;;4.30;1.80;;;;;;;14.12;75.75;99241.15;107715;1270;138990;-73
2022/06/21 00:45:03;;;;;;;2.40;2.10;;;;;;;14.07;75.82;99243.05;107193;1270;109077;-74
2022/06/21 00:47:43;;;;;;;4.10;3.10;;;;;;;14.04;75.93;99238.00;106064;1270;139713;-73
2022/06/21 00:50:20;;;;;;;5.70;3.00;;;;;;;14.00;75.90;99232.66;106632;1269;96471;-73
2022/06/21 00:52:58;;;;;;;4.60;3.30;;;;;;;13.97;75.93;99239.48;106207;1270;96490;-73
2022/06/21 00:55:39;;;;;;;4.10;3.30;;;;;;;13.94;76.04;99240.05;107825;1270;111169;-73
2022/06/21 00:58:14;;;;;;;4.30;3.10;;;;;;;13.91;76.03;99234.05;106382;1270;107082;-74
2022/06/21 01:00:58;;;;;;;3.70;3.40;;;;;;;13.88;76.04;99236.34;106121;1270;138252;-73
2022/06/21 01:03:35;;;;;;;4.40;3.40;;;;;;;13.85;76.06;99234.10;106488;1271;96451;-73
2022/06/21 01:06:11;;;;;;;4.40;3.30;;;;;;;13.83;76.20;99232.13;106058;1271;137795;-73
2022/06/21 01:08:48;;;;;;;7.80;4.00;;;;;;;13.82;76.12;99230.45;106269;1270;111079;-73
2022/06/21 01:11:26;;;;;;;5.50;3.70;;;;;;;13.77;76.03;99236.12;106165;1270;139206;-73
2022/06/21 01:14:01;;;;;;;4.00;3.50;;;;;;;13.72;75.89;99237.85;106215;1270;109148;-72
2022/06/21 01:16:34;;;;;;;6.90;4.00;;;;;;;13.63;75.70;99240.17;106180;1270;96477;-73
2022/06/21 01:19:12;;;;;;;5.50;3.80;;;;;;;13.54;75.71;99240.73;106145;1270;138721;-73
2022/06/21 01:21:48;;;;;;;8.70;4.00;;;;;;;13.48;75.78;99241.10;107823;1268;110069;-73
2022/06/21 01:24:31;;;;;;;5.50;4.10;;;;;;;13.42;75.81;99246.31;107712;1270;138664;-73
2022/06/21 01:27:06;;;;;;;6.40;4.20;;;;;;;13.40;76.08;99242.77;107821;1270;108646;-73
2022/06/21 01:29:38;;;;;;;5.20;3.70;;;;;;;13.39;76.17;99244.27;107735;1270;138385;-73
2022/06/21 01:32:11;;;;;;;4.80;3.50;;;;;;;13.37;76.03;99243.15;107144;1270;96490;-73
2022/06/21 01:34:42;;;;;;;5.50;3.60;;;;;;;13.35;75.87;99236.09;106211;1271;111550;-73
2022/06/21 01:37:19;;;;;;;9.10;4.20;;;;;;;13.30;75.88;99232.53;106116;1270;138629;-73
2022/06/21 01:39:56;;;;;;;5.70;4.30;;;;;;;13.27;75.90;99226.42;106188;1270;110967;-73
2022/06/21 01:42:33;;;;;;;7.80;4.70;;;;;;;13.24;75.89;99221.04;106092;1270;138043;-72
2022/06/21 01:45:08;;;;;;;;;;;;;;;13.21;75.90;99220.30;107848;1270;94727;-72
2022/06/21 01:47:51;;;;;;;9.30;4.80;;;;;;;13.16;75.92;99218.70;107760;1270;127969;-72
2022/06/21 01:50:24;;;;;;;8.70;5.40;;;;;;;13.12;75.86;99219.09;106317;1270;108996;-73
2022/06/21 01:52:57;;;;;;;6.10;5.50;;;;;;;13.08;75.98;99214.11;106301;1270;108345;-73
2022/06/21 01:55:34;;;;;;;9.10;5.40;;;;;;;13.04;75.99;99209.13;106093;1270;137820;-73
2022/06/21 01:58:06;;;;;;;;;;;;;;;12.98;76.00;99210.70;107862;1270;94410;-72
2022/06/21 02:00:43;;;;;;;9.00;6.20;;;;;;;12.93;76.13;99214.81;107628;1270;125835;-73
2022/06/21 02:03:19;;;;;;;7.80;6.90;;;;;;;12.90;76.43;99227.55;106214;1270;109551;-73
2022/06/21 02:05:59;;;;;;;8.00;5.90;;;;;;;12.85;76.41;99229.38;107718;1270;139043;-73
2022/06/21 02:08:38;;;;;;;8.00;6.40;;;;;;;12.80;76.44;99242.08;106569;1270;96476;-72
2022/06/21 02:11:15;;;;;;;7.60;5.90;;;;;;;12.74;76.40;99251.31;106385;1270;137264;-71
2022/06/21 02:14:28;;;;;;;8.60;6.40;;;;;;;12.67;76.59;99257.98;106258;1270;110990;-73
2022/06/21 02:16:48;;;;;;;10.70;6.80;;;;;;;12.63;76.87;99250.52;106267;1270;108616;-72
2022/06/21 02:19:27;;;;;;;8.60;7.20;;;;;;;12.63;77.11;99243.20;106150;1270;140123;-72
2022/06/21 02:21:59;;;;;;;8.80;6.30;;;;;;;12.63;77.19;99247.41;106276;1270;96557;-73
2022/06/21 02:24:32;;;;;;;11.50;6.50;;;;;;;12.64;77.10;99245.39;107717;1270;139402;-72
2022/06/21 02:27:05;;;;;;;10.40;6.50;;;;;;;12.67;77.32;99250.46;107647;1270;111062;-72
2022/06/21 02:29:38;;;;;;;7.40;5.90;;;;;;;12.69;77.33;99248.78;107723;1270;139296;-73
2022/06/21 02:32:19;;;;;;;8.90;5.90;;;;;;;12.70;77.32;99245.59;107840;1270;107759;-73
2022/06/21 02:34:56;;;;;;;8.90;5.80;;;;;;;12.73;77.34;99253.80;107821;1270;94812;-73
2022/06/21 02:37:30;;;;;;;8.50;6.10;;;;;;;12.76;77.26;99250.01;107771;1270;138271;-73
2022/06/21 02:40:06;;;;;;;7.00;5.50;;;;;;;12.78;77.41;99243.25;107826;1270;109737;-72
2022/06/21 02:42:43;;;;;;;7.20;5.90;;;;;;;12.83;77.37;99243.66;107060;1270;137869;-74
2022/06/21 02:45:25;;;;;;;6.40;5.30;;;;;;;12.85;77.29;99239.88;106184;1270;109213;-73
2022/06/21 02:48:08;;;;;;;7.90;6.00;;;;;;;12.87;77.38;99240.43;106080;1270;138055;-73
2022/06/21 02:50:46;;;;;;;7.80;6.00;;;;;;;12.91;77.46;99233.91;107826;1270;94472;-73
2022/06/21 02:53:24;;;;;;;11.40;6.50;;;;;;;12.94;77.49;99232.55;107735;1270;138349;-73
2022/06/21 02:56:01;;;;;;;10.20;6.00;;;;;;;12.96;77.25;99230.48;107839;1270;108824;-72
2022/06/21 02:58:39;;;;;;;8.90;6.40;;;;;;;12.97;77.16;99230.65;107833;1270;108902;-72
2022/06/21 03:01:18;;;;;;;9.00;6.00;;;;;;;12.96;77.21;99227.22;106689;1270;138760;-73
2022/06/21 03:03:51;;;;;;;8.80;6.20;;;;;;;12.96;77.14;99227.04;106292;1270;96791;-72
2022/06/21 03:06:24;;;;;;;11.00;6.10;;;;;;;12.96;77.18;99229.97;106145;1270;137841;-73
2022/06/21 03:09:00;;;;;;;9.50;6.50;;;;;;;12.96;77.19;99230.70;106235;1270;108859;-73
2022/06/21 03:11:37;;;;;;;9.20;6.20;;;;;;;12.94;77.12;99230.44;107700;1270;138251;-73
2022/06/21 03:14:15;;;;;;;9.40;6.90;;;;;;;12.92;77.24;99228.81;107817;1270;94650;-73
2022/06/21 03:16:48;;;;;;;10.50;6.60;;;;;;;12.93;77.30;99229.30;107844;1270;94875;-73
2022/06/21 03:19:26;;;;;;;8.50;6.80;;;;;;;12.94;77.35;99231.69;107714;1270;139577;-73
2022/06/21 03:21:58;;;;;;;10.30;6.50;;;;;;;12.95;77.47;99223.42;107848;1270;108776;-73
2022/06/21 03:24:33;;;;;;;12.20;6.50;;;;;;;13.01;77.41;99230.59;106880;1270;139147;-72
2022/06/21 03:27:15;;;;;;;6.90;6.20;;;;;;;13.08;77.20;99231.56;107812;1270;94664;-73
2022/06/21 03:29:47;;;;;;;8.70;6.80;;;;;;;13.14;77.07;99230.32;107709;1270;138595;-72
2022/06/21 03:32:19;;;;;;;9.80;7.10;;;;;;;13.16;76.89;99237.05;106295;1271;110933;-72
2022/06/21 03:34:53;;;;;;;9.00;6.80;;;;;;;13.16;76.95;99240.34;106222;1271;108355;-71
2022/06/21 03:37:26;;;;;;;8.00;6.50;;;;;;;13.15;76.85;99237.77;106161;1270;139073;-72
2022/06/21 03:42:51;;;;;;;10.40;6.70;;;;;;;13.18;76.75;99235.31;106101;1271;138266;-72
2022/06/21 03:45:30;;;;;;;12.20;6.80;;;;;;;13.20;76.56;99236.61;106233;1270;110648;-72
2022/06/21 03:48:09;;;;;;;10.50;6.40;;;;;;;13.21;76.31;99228.88;106068;1270;138294;-73
2022/06/21 03:50:48;;;;;;;7.50;6.70;;;;;;;13.20;76.26;99229.64;106958;1270;108228;-72
2022/06/21 03:53:26;;;;;;;10.00;6.60;;;;;;;13.20;76.47;99229.45;106197;1270;139329;-73
2022/06/21 03:56:04;;;;;;;9.10;7.00;;;;;;;13.20;76.45;99227.77;106343;1270;96492;-73
2022/06/21 03:58:52;;;;;;;10.70;6.60;;;;;;;13.21;76.40;99230.63;107893;1270;111121;-73
2022/06/21 04:01:31;;;;;;;8.70;6.80;;;;;;;13.25;76.52;99232.45;107685;1270;138785;-73
2022/06/21 04:04:10;;;;;;;9.70;6.50;;;;;;;13.28;76.30;99228.78;107809;1270;107918;-72
2022/06/21 04:06:52;;;;;;;11.20;6.50;;;;;;;13.35;76.07;99227.04;107681;1270;139318;-74
2022/06/21 04:09:32;;;;;;;9.20;6.50;;;;;;;13.41;75.71;99225.26;107833;1270;94587;-73
2022/06/21 04:12:11;;;;;;;10.90;6.60;;;;;;;13.42;75.48;99227.96;107719;1270;138978;-74
2022/06/21 04:14:48;;;;;;;8.20;5.70;;;;;;;13.43;75.16;99225.66;107880;1270;109125;-73
2022/06/21 04:17:27;;;;;;;11.60;5.50;;;;;;;13.50;74.98;99224.58;107740;1268;138142;-74
2022/06/21 04:20:02;;;;;;;10.20;5.70;;;;;;;13.55;74.70;99224.27;107834;1270;94904;-74
2022/06/21 04:22:39;;;;;;;8.60;5.90;;;;;;;13.56;74.74;99226.79;107843;1270;94414;-73
2022/06/21 04:25:16;;;;;;;8.70;5.50;;;;;;;13.57;74.40;99225.53;107755;1270;139427;-74
2022/06/21 04:27:53;;;;;;;9.70;5.50;;;;;;;13.56;74.33;99224.19;107825;1270;108259;-74
2022/06/21 04:30:32;;;;;;;8.20;5.40;;;;;;;13.57;74.16;99224.95;106184;1270;138190;-74
2022/06/21 04:33:10;;;;;;;6.60;5.10;;;;;;;13.58;73.91;99220.88;106252;1270;96476;-73
2022/06/21 04:35:49;;;;;;;6.70;4.70;;;;;;;13.57;73.28;99220.46;106186;1270;138262;-73
2022/06/21 04:38:29;;;;;;;7.00;5.00;;;;;;;13.54;73.14;99219.59;106325;1270;111371;-73
2022/06/21 04:41:07;;;;;;;6.70;5.00;;;;;;;13.55;73.00;99213.09;107848;1269;109358;-74
2022/06/21 04:43:45;;;;;;;7.20;4.80;;;;;;;13.56;72.80;99214.90;107830;1270;107915;-73
2022/06/21 04:46:25;;;;;;;7.40;4.80;;;;;;;13.60;72.55;99212.02;107789;1270;94851;-74
2022/06/21 04:49:03;;;;;;;10.80;5.10;;;;;;;13.70;72.78;99215.48;107713;1270;137860;-74
2022/06/21 04:51:39;;;;;;;8.10;5.30;;;;;;;13.84;72.35;99210.38;107824;1270;110971;-73
2022/06/21 04:54:19;;;;;;;8.60;4.80;;;;;;;14.03;72.37;99207.29;106897;1270;138221;-74
2022/06/21 04:56:58;;;;;;;5.90;4.50;;;;;;;14.27;71.68;99204.70;106269;1270;108945;-73
2022/06/21 04:59:34;;;;;;;6.10;4.70;;;;;;;14.45;71.17;99199.00;106671;1270;252875;-74
2022/06/21 05:02:14;;;;;;;9.30;4.70;;;;;;;14.60;70.93;99198.23;106157;1270;96475;-74
2022/06/21 05:04:49;;;;;;;8.20;4.40;;;;;;;14.78;70.10;99203.32;106164;1270;111370;-74
2022/06/21 05:07:26;;;;;;;6.40;4.80;;;;;;;14.87;69.41;99207.30;106099;1271;138304;-75
2022/06/21 05:09:59;;;;;;;6.50;4.60;;;;;;;14.78;68.63;99213.29;106147;1271;108970;-73
2022/06/21 05:12:35;;;;;;;6.20;4.90;;;;;;;14.63;68.62;99214.30;106071;1271;138313;-75
2022/06/21 05:15:15;;;;;;;5.50;4.90;;;;;;;14.44;68.59;99218.12;106240;1270;96391;-74
2022/06/21 05:17:53;;;;;;;6.80;5.00;;;;;;;14.32;68.89;99217.30;106756;1270;138212;-74
2022/06/21 05:20:30;;;;;;;6.20;4.80;;;;;;;14.27;69.27;99220.79;106308;1270;108373;-73
2022/06/21 05:23:06;;;;;;;8.40;4.80;;;;;;;14.18;68.78;99209.80;106172;1271;108685;-74
2022/06/21 05:25:41;;;;;;;8.60;4.80;;;;;;;14.10;69.19;99211.21;106459;1270;96563;-74
2022/06/21 05:28:23;;;;;;;8.40;4.70;;;;;;;14.04;69.14;99211.77;106183;1271;96513;-74
2022/06/21 05:31:00;;;;;;;9.20;4.60;;;;;;;13.98;69.37;99214.80;106437;1270;138034;-74
2022/06/21 05:33:36;;;;;;;7.90;5.30;;;;;;;13.88;69.63;99221.51;107829;1270;108024;-74
2022/06/21 05:36:12;;;;;;;9.20;5.30;;;;;;;13.78;69.99;99215.09;107704;1270;139372;-73
2022/06/21 05:38:53;;;;;;;8.70;5.30;;;;;;;13.74;70.35;99220.09;107813;1270;95149;-74
2022/06/21 05:41:31;;;;;;;9.30;5.40;;;;;;;13.73;70.65;99221.25;107744;1270;138542;-74
2022/06/21 05:44:12;;;;;;;7.70;5.40;;;;;;;13.71;70.83;99223.05;107107;1270;111091;-75
2022/06/21 05:46:49;;;;;;;7.40;5.30;;;;;;;13.68;71.20;99224.48;106183;1270;107326;-73
2022/06/21 05:49:24;;;;;;;9.60;6.10;;;;;;;13.65;71.36;99218.56;107674;1270;137886;-72
2022/06/21 05:52:00;;;;;;;9.20;6.30;;;;;;;13.61;71.63;99219.48;107805;1270;94692;-73
2022/06/21 05:54:37;;;;;;;8.80;7.00;;;;;;;13.59;71.85;99217.52;107628;1271;138047;-74
2022/06/21 05:57:14;;;;;;;9.60;7.30;;;;;;;13.53;71.63;99221.55;107663;1271;111204;-74
2022/06/21 05:59:46;;;;;;;8.50;6.70;;;;;;;13.53;71.59;99212.84;107683;1270;138605;-73
2022/06/21 06:02:25;;;;;;;9.60;7.00;;;;;;;13.57;71.58;99222.16;107819;1270;108854;-73
2022/06/21 06:05:07;;;;;;;10.40;5.80;;;;;;;13.65;71.17;99217.20;107811;1270;94769;-74
2022/06/21 06:07:44;;;;;;;6.50;4.50;;;;;;;13.74;70.82;99216.63;107818;1269;95364;-73
2022/06/21 06:10:21;;;;;;;5.20;3.40;;;;;;;14.77;70.22;99206.33;107281;1271;111362;-75
2022/06/21 06:12:59;;;;;;;6.50;2.90;;;;;;;17.17;66.59;99198.96;107589;1270;139171;-75
2022/06/21 06:15:36;;;;;;;5.70;2.80;;;;;;;18.86;61.54;99193.35;107726;1270;108171;-74
2022/06/21 06:18:17;;;;;;;3.20;2.50;;;;;;;19.22;60.90;99198.60;107649;1271;137251;-73
2022/06/21 06:20:57;;;;;;;6.00;2.60;;;;;;;20.32;59.27;99187.63;107765;1271;94663;-75
2022/06/21 06:23:36;;;;;;;4.80;2.70;;;;;;;20.87;56.02;99181.44;107352;1271;137301;-64
2022/06/21 06:26:13;;;;;;;5.50;2.60;;;;;;;20.63;54.75;99181.33;106181;1271;108276;-63
2022/06/21 06:28:52;;;;;;;4.50;2.70;;;;;;;20.16;54.51;99183.62;106196;1271;108681;-64
2022/06/21 06:31:28;;;;;;;4.60;3.00;;;;;;;19.57;55.65;99191.94;106127;1271;137271;-63
2022/06/21 06:34:04;;;;;;;4.20;3.00;;;;;;;18.99;56.00;99196.30;106200;1271;96526;-64
2022/06/21 06:36:40;;;;;;;4.80;2.90;;;;;;;18.40;56.31;99199.39;106057;1271;137173;-64
2022/06/21 06:39:21;;;;;;;3.20;2.90;;;;;;;18.01;57.29;99199.55;106251;1271;108459;-64
2022/06/21 06:42:01;;;;;;;4.70;2.80;;;;;;;17.74;57.34;99194.41;107699;1271;137971;-66
2022/06/21 06:44:39;;;;;;;6.20;2.60;;;;;;;17.72;57.21;99195.11;107781;1270;94430;-65
2022/06/21 06:47:16;;;;;;;6.40;2.50;;;;;;;17.58;57.10;99195.69;107674;1271;137273;-65
2022/06/21 06:49:53;;;;;;;5.90;2.70;;;;;;;17.23;57.68;99203.65;107800;1271;111108;-65
2022/06/21 06:52:31;;;;;;;3.10;2.10;;;;;;;17.46;58.01;99197.13;107541;1271;108752;-64
2022/06/21 06:55:11;;;;;;;6.50;2.10;;;;;;;17.31;57.30;99197.25;106060;1271;138391;-64
2022/06/21 06:57:49;;;;;;;5.20;1.90;;;;;;;16.90;57.55;99197.93;107172;1271;97515;-73
2022/06/21 07:00:24;;;;;;;5.00;2.10;;;;;;;16.42;58.36;99215.98;106577;1271;137340;-73
2022/06/21 07:03:01;;;;;;;5.80;1.90;;;;;;;15.99;59.39;99213.80;107183;1271;110982;-72
2022/06/21 07:05:37;;;;;;;3.60;2.60;;;;;;;15.62;60.70;99225.13;107652;1271;137387;-73
2022/06/21 07:08:18;;;;;;;4.90;2.30;;;;;;;15.35;61.68;99225.23;107799;1270;107715;-73
2022/06/21 07:10:54;;;;;;;4.00;2.40;;;;;;;15.05;62.34;99221.67;107745;1271;96296;-72
2022/06/21 07:13:27;;;;;;;4.10;2.70;;;;;;;14.79;62.91;99226.34;107667;1271;137959;-73
2022/06/21 07:16:07;;;;;;;4.90;2.50;;;;;;;14.59;63.39;99213.02;107771;1270;111912;-72
2022/06/21 07:18:46;;;;;;;3.30;2.60;;;;;;;14.46;63.70;99227.11;107675;1270;138582;-71
2022/06/21 07:21:20;;;;;;;6.80;2.50;;;;;;;14.42;63.97;99226.29;107811;1270;108020;-71
2022/06/21 07:23:53;;;;;;;4.90;2.50;;;;;;;14.42;64.24;99223.54;106620;1271;138345;-71
2022/06/21 07:26:31;;;;;;;5.10;2.40;;;;;;;14.32;64.28;99228.02;106839;1270;95145;-70
2022/06/21 07:29:10;;;;;;;1.90;1.70;;;;;;;14.16;64.15;99229.68;107821;1270;111222;-71
2022/06/21 07:31:46;;;;;;;3.20;1.90;;;;;;;13.98;64.32;99238.05;107839;1270;106304;-72
2022/06/21 07:34:23;;;;;;;5.10;1.90;;;;;;;13.78;64.57;99236.80;107614;1270;107569;-72
2022/06/21 07:37:05;;;;;;;6.70;2.30;;;;;;;13.64;65.03;99242.00;106120;1270;138193;-71
2022/06/21 07:39:42;;;;;;;4.40;2.20;;;;;;;13.53;65.57;99235.38;107540;1270;95034;-71
2022/06/21 07:42:19;;;;;;;3.10;2.20;;;;;;;13.46;65.81;99239.83;106403;1270;138368;-71
2022/06/21 07:44:55;;;;;;;2.70;1.90;;;;;;;13.39;66.00;99239.02;107687;1270;109104;-71
2022/06/21 07:47:32;;;;;;;4.40;2.50;;;;;;;13.38;66.43;99245.36;107633;1270;140746;-71
2022/06/21 07:50:10;;;;;;;4.60;2.50;;;;;;;13.35;66.70;99244.84;107762;1270;94659;-69
2022/06/21 07:52:45;;;;;;;6.50;2.60;;;;;;;13.31;67.12;99248.19;107755;1270;94704;-70
2022/06/21 07:55:24;;;;;;;4.90;2.30;;;;;;;13.32;67.31;99252.20;107688;1270;137981;-71
2022/06/21 07:58:03;;;;;;;3.20;2.40;;;;;;;13.33;67.34;99247.40;107778;1270;108881;-71
2022/06/21 08:09:24;;;;;;;8.30;2.80;;;;;;;13.40;68.13;99251.87;107464;1270;111074;-72
2022/06/21 08:12:00;;;;;;;3.50;3.00;;;;;;;13.43;68.01;99241.55;106424;1270;138206;-72
2022/06/21 08:14:34;;;;;;;5.60;2.70;;;;;;;13.45;68.20;99250.29;107758;1270;107788;-70
2022/06/21 08:17:19;;;;;;;5.60;3.10;;;;;;;13.48;68.39;99246.14;107444;1270;138256;-68
2022/06/21 08:19:56;;;;;;;6.40;2.90;;;;;;;13.48;68.76;99253.48;106310;1270;96575;-72
2022/06/21 08:22:34;;;;;;;4.70;3.10;;;;;;;13.49;69.02;99250.30;106671;1270;110923;-71
2022/06/21 08:25:15;;;;;;;5.60;2.70;;;;;;;13.46;69.12;99247.64;106284;1270;138650;-72
2022/06/21 08:27:53;;;;;;;4.90;2.70;;;;;;;13.40;69.35;99255.34;107739;1270;108625;-70
2022/06/21 08:30:31;;;;;;;6.30;2.80;;;;;;;13.36;69.80;99255.05;107662;1270;138479;-70
2022/06/21 08:33:10;;;;;;;4.40;3.10;;;;;;;13.34;69.98;99262.89;107699;1270;94667;-72
2022/06/21 08:35:48;;;;;;;4.40;3.00;;;;;;;13.30;70.20;99263.77;106175;1270;138064;-70
2022/06/21 08:38:29;;;;;;;4.70;2.80;;;;;;;13.29;70.19;99268.77;106338;1270;109010;-70
2022/06/21 08:48:20;;;;;;;5.30;2.50;;;;;;;13.33;70.05;99268.85;107611;1270;137971;-72
2022/06/21 08:51:27;;;;;;;4.40;2.30;;;;;;;13.59;69.80;99267.34;107788;1270;111238;-71
2022/06/21 08:54:05;;;;;;;4.20;2.70;;;;;;;13.72;69.51;99273.02;107719;1270;139285;-71
2022/06/21 08:56:46;;;;;;;2.70;2.10;;;;;;;13.72;69.17;99274.04;107756;1270;107842;-71
2022/06/21 08:59:28;;;;;;;4.30;2.00;;;;;;;13.74;68.84;99280.36;106836;1270;138571;-70
2022/06/21 09:02:10;;;;;;;3.70;2.20;;;;;;;13.81;68.77;99278.21;107745;1270;94803;-71
2022/06/21 09:04:58;;;;;;;2.40;1.90;;;;;;;13.94;68.84;99281.24;107760;1270;110984;-72
2022/06/21 09:07:53;;;;;;;3.50;2.20;;;;;;;14.19;68.80;99278.82;107668;1270;137895;-70
2022/06/21 09:10:53;;;;;;;4.60;1.90;;;;;;;14.98;68.24;99273.27;106890;1270;108762;-71
2022/06/21 09:13:38;;;;;;;4.00;1.90;;;;;;;15.65;65.87;99267.20;106994;1270;138052;-71
2022/06/21 09:16:19;;;;;;;2.20;1.60;;;;;;;16.09;64.72;99270.94;107613;1270;95449;-71
2022/06/21 09:19:09;;;;;;;2.40;1.60;;;;;;;16.65;64.63;99268.89;107691;1270;137665;-71
2022/06/21 09:21:52;;;;;;;2.10;1.60;;;;;;;17.39;62.73;99262.69;107123;1270;107839;-70
2022/06/21 09:24:38;;;;;;;4.20;1.60;;;;;;;17.73;60.42;99262.23;106993;1270;137955;-70
2022/06/21 09:27:18;;;;;;;1.70;1.50;;;;;;;17.85;59.60;99262.73;107642;1270;96540;-70
2022/06/21 09:30:09;;;;;;;3.60;1.60;;;;;;;17.92;59.41;99264.27;106657;1270;137381;-71
2022/06/21 09:32:55;;;;;;;5.60;1.70;;;;;;;17.92;58.89;99259.70;107797;1270;111190;-71
2022/06/21 09:35:42;;;;;;;3.20;1.50;;;;;;;17.68;58.68;99265.23;107626;1271;137632;-71
2022/06/21 09:38:21;;;;;;;3.80;1.70;;;;;;;17.33;58.41;99265.91;107760;1270;107863;-70
2022/06/21 09:41:01;;;;;;;4.10;1.80;;;;;;;16.95;58.79;99273.20;107759;1270;94929;-71
2022/06/21 09:43:45;;;;;;;3.90;2.00;;;;;;;16.59;59.68;99279.67;107823;1270;94679;-70
2022/06/21 09:46:26;;;;;;;7.20;2.00;;;;;;;16.15;59.78;99286.12;107804;1270;109998;-70
2022/06/21 09:49:06;;;;;;;2.60;2.00;;;;;;;15.77;61.10;99298.79;107722;1270;138441;-70
2022/06/21 09:51:47;;;;;;;8.90;2.20;;;;;;;15.58;62.19;99301.52;107766;1271;110570;-70
2022/06/21 09:54:36;;;;;;;3.60;2.10;;;;;;;15.43;62.62;99300.02;107667;1270;138495;-71
2022/06/21 09:57:19;;;;;;;5.20;1.70;;;;;;;15.23;63.04;99301.90;107687;1270;94498;-71
2022/06/21 10:00:02;;;;;;;4.00;1.80;;;;;;;15.23;63.89;99299.06;106127;1270;138188;-71
2022/06/21 10:02:58;;;;;;;3.50;1.40;;;;;;;15.56;64.32;99294.58;107747;1270;107764;-67
2022/06/21 10:05:38;;;;;;;4.50;2.00;;;;;;;16.14;63.94;99299.38;106223;1270;138229;-65
2022/06/21 10:08:29;;;;;;;2.50;1.70;;;;;;;16.66;63.26;99289.35;107495;1270;94709;-66
2022/06/21 10:11:17;;;;;;;4.20;2.00;;;;;;;17.11;62.68;99281.67;107785;1270;94706;-65
2022/06/21 10:14:08;;;;;;;7.50;2.40;;;;;;;17.65;61.83;99271.83;107820;1270;112251;-66
2022/06/21 10:17:03;;;;;;;10.40;3.30;;;;;;;18.07;60.92;99274.89;107749;1270;108854;-68
2022/06/21 10:19:48;;;;;;;5.70;2.30;;;;;;;18.53;60.16;99268.93;107798;1270;108723;-68
2022/06/21 10:22:31;;;;;;;3.70;2.10;;;;;;;18.71;58.95;99270.66;107260;1271;96506;-68
2022/06/21 10:25:44;;;;;;;13.00;6.90;;;;;;;18.83;58.51;99274.63;107707;1270;137060;-69
2022/06/21 10:28:35;;;;;;;9.90;3.20;;;;;;;19.49;58.40;99273.48;106257;1270;110615;-68
2022/06/21 10:31:26;;;;;;;3.90;2.20;;;;;;;20.34;57.03;99258.73;107298;1269;137315;-70
2022/06/21 10:34:22;;;;;;;4.50;2.00;;;;;;;20.83;54.55;99251.17;106897;1270;108553;-71
2022/06/21 10:37:22;;;;;;;2.70;1.40;;;;;;;21.01;53.61;99251.16;106113;1270;137519;-70
2022/06/21 10:40:21;;;;;;;2.50;1.40;;;;;;;20.89;51.64;99246.98;106248;1270;96475;-72
2022/06/21 10:43:21;;;;;;;5.00;1.40;;;;;;;20.30;51.11;99246.93;106151;1270;137367;-76
2022/06/21 10:45:59;;;;;;;4.20;1.50;;;;;;;19.65;52.15;99256.64;107800;1270;109408;-72
2022/06/21 10:48:53;;;;;;;2.50;1.50;;;;;;;19.25;52.33;99253.10;107624;1270;138244;-72
2022/06/21 10:51:37;;;;;;;6.30;1.60;;;;;;;19.27;53.57;99257.67;106801;1270;95041;-71
2022/06/21 10:54:24;;;;;;;3.50;1.60;;;;;;;19.62;53.77;99253.71;106040;1270;137520;-72
2022/06/21 10:57:12;;;;;;;7.20;2.30;;;;;;;19.86;53.67;99259.38;107816;1270;111075;-71
2022/06/21 11:03:37;;;;;;;3.40;2.00;;;;;;;20.35;53.09;99242.09;106639;1270;108709;-71
2022/06/21 11:06:25;;;;;;;3.50;1.70;;;;;;;20.52;52.44;99231.77;107634;1270;137209;-71
2022/06/21 11:09:09;;;;;;;7.00;2.80;;;;;;;20.75;51.66;99223.13;107822;1270;94952;-73
2022/06/21 11:11:48;;;;;;;5.10;1.80;;;;;;;20.57;50.02;99229.16;106374;1271;137354;-72
2022/06/21 11:14:33;;;;;;;4.90;1.50;;;;;;;20.19;49.10;99232.02;107833;1269;109197;-73
2022/06/21 11:17:13;;;;;;;5.00;1.30;;;;;;;19.55;49.27;99241.05;106721;1270;107826;-72
2022/06/21 11:19:54;;;;;;;2.50;1.10;;;;;;;18.85;49.91;99250.36;107705;1269;95270;-74
2022/06/21 11:22:38;;;;;;;2.90;1.40;;;;;;;18.20;51.12;99259.94;107244;1270;94382;-73
2022/06/21 11:25:28;;;;;;;4.40;1.50;;;;;;;17.75;52.15;99257.46;107736;1270;137007;-75
2022/06/21 11:28:13;;;;;;;2.90;1.60;;;;;;;17.84;53.49;99257.85;107523;1270;109126;-72
2022/06/21 11:30:54;;;;;;;6.50;1.90;;;;;;;18.13;53.78;99256.44;106866;1270;137547;-72
2022/06/21 11:33:36;;;;;;;4.50;2.00;;;;;;;18.37;53.75;99249.61;107807;1270;94796;-72
2022/06/21 11:36:15;;;;;;;4.20;2.00;;;;;;;18.69;54.47;99254.39;107703;1270;138671;-73
2022/06/21 11:39:03;;;;;;;6.60;1.80;;;;;;;18.98;53.69;99241.64;107834;1270;109964;-71
2022/06/21 11:44:38;;;;;;;3.70;1.50;;;;;;;19.63;52.66;99231.41;107519;1271;108839;-73
2022/06/21 11:47:14;;;;;;;3.30;1.10;;;;;;;19.60;51.67;99235.05;106076;1271;137544;-72
2022/06/21 11:49:52;;;;;;;4.50;1.50;;;;;;;19.39;51.41;99239.65;107816;1270;94647;-74
2022/06/21 11:52:57;;;;;;;4.50;1.30;;;;;;;19.15;51.62;99243.72;106882;1270;111325;-72
2022/06/21 11:55:36;;;;;;;3.70;1.50;;;;;;;18.84;51.50;99246.69;106639;1270;137639;-73
2022/06/21 11:58:20;;;;;;;6.10;1.50;;;;;;;18.58;51.73;99250.17;107787;1270;108048;-72
2022/06/21 12:00:59;;;;;;;3.60;1.50;;;;;;;18.34;51.88;99252.65;106626;1270;137315;-71
2022/06/21 12:03:44;;;;;;;4.20;1.30;;;;;;;18.16;52.22;99247.08;107786;1271;94861;-71
2022/06/21 12:06:29;;;;;;;4.80;1.10;;;;;;;17.95;52.45;99259.61;107714;1269;137194;-72
2022/06/21 12:09:16;;;;;;;4.90;1.90;;;;;;;17.71;52.97;99263.27;107868;1270;107980;-68
2022/06/21 12:12:08;;;;;;;5.50;1.40;;;;;;;17.58;53.68;99260.53;107718;1270;137932;-67
2022/06/21 12:14:52;;;;;;;2.30;1.20;;;;;;;17.50;53.94;99261.14;107739;1270;94925;-67
2022/06/21 12:17:31;;;;;;;2.30;1.20;;;;;;;17.53;54.47;99267.73;107730;1269;137323;-68
2022/06/21 12:20:12;;;;;;;2.90;1.20;;;;;;;17.56;54.66;99287.05;107876;1270;110651;-67
2022/06/21 12:22:49;;;;;;;3.70;1.30;;;;;;;17.48;55.48;99319.25;106947;1270;109329;-67
2022/06/21 12:25:22;;;;;;;2.90;1.20;;;;;;;17.19;56.34;99321.85;106088;1270;137834;-65
2022/06/21 12:27:58;;;;;;;1.60;0.90;;;;;;;16.74;57.24;99335.48;106257;1270;96488;-67
2022/06/21 12:30:51;;;;;;;4.70;1.30;;;;;;;16.18;57.64;99339.26;106175;1270;137206;-67
2022/06/21 12:33:27;;;;;;;3.70;1.00;;;;;;;15.80;58.45;99334.50;107823;1270;111096;-67
2022/06/21 12:36:22;;;;;;;4.40;1.10;;;;;;;15.61;59.51;99326.98;107753;1268;138055;-67
2022/06/21 12:38:59;;;;;;;5.00;1.00;;;;;;;15.51;60.12;99321.23;107167;1270;108803;-67
2022/06/21 12:41:41;;;;;;;3.40;1.10;;;;;;;15.49;60.58;99325.90;106106;1270;138503;-66